KDFW/DFW METAR and TAF weather

Enter ICAO airport designator
Station Type Date Time Source
KDFW METAR 2022/01/27 22:53 UTC NOAA

KDFW 272253Z 03007KT 10SM FEW200 SCT250 09/M02 A3023 RMK AO2 SLP237 T00941017


Station Type Date Time Source
KDFW Decoded METAR 2022/01/27 22:53 UTC NOAA

DALLAS/FT. WORTH INTERNATIONAL AIRPORT , TX, United States (KDFW) 32-54N 097-02W 174M
Jan 27, 2022 - 05:53 PM EST / 2022.01.27 2253 UTC
Wind: from the NNE (030 degrees) at 8 MPH (7 KT):0
Visibility: 10 mile(s):0
Sky conditions: partly cloudy
Temperature: 48.9 F (9.4 C)
Dew Point: 28.9 F (-1.7 C)
Relative Humidity: 45%
Pressure (altimeter): 30.23 in. Hg (1023 hPa)
ob: KDFW 272253Z 03007KT 10SM FEW200 SCT250 09/M02 A3023 RMK AO2 SLP237 T00941017
cycle: 23

Station Type Date Time Source
KDFW TAF 2022/01/27 22:04 UTC NOAA

TAF
AMD KDFW 272201Z 2722/2824 01006KT P6SM SCT050
FM280200 01011KT P6SM BKN035
FM280900 34012KT P6SM FEW060

Example: see airport list